sensor_id;sensor_type;location;lat;lon;timestamp;temperature;humidity
45207;DHT22;30950;53.086;21.576;2023-11-22T00:01:23;-3.40;99.90
45207;DHT22;30950;53.086;21.576;2023-11-22T00:03:52;-3.40;99.90
45207;DHT22;30950;53.086;21.576;2023-11-22T00:06:20;-1.40;99.90
45207;DHT22;30950;53.086;21.576;2023-11-22T00:08:50;-3.40;99.90
45207;DHT22;30950;53.086;21.576;2023-11-22T00:11:17;-3.50;99.90
45207;DHT22;30950;53.086;21.576;2023-11-22T00:13:44;-2.10;99.90
45207;DHT22;30950;53.086;21.576;2023-11-22T00:16:12;-1.20;99.90
45207;DHT22;30950;53.086;21.576;2023-11-22T00:18:40;-3.60;99.90
45207;DHT22;30950;53.086;21.576;2023-11-22T00:21:08;-3.30;99.90
45207;DHT22;30950;53.086;21.576;2023-11-22T00:23:36;-3.70;99.90
45207;DHT22;30950;53.086;21.576;2023-11-22T00:26:04;-3.70;99.90
45207;DHT22;30950;53.086;21.576;2023-11-22T00:28:33;-3.70;99.90
45207;DHT22;30950;53.086;21.576;2023-11-22T00:31:01;-3.30;99.90
45207;DHT22;30950;53.086;21.576;2023-11-22T00:33:29;-3.50;99.90
45207;DHT22;30950;53.086;21.576;2023-11-22T00:35:58;-3.80;99.90
45207;DHT22;30950;53.086;21.576;2023-11-22T00:38:26;-2.10;99.90
45207;DHT22;30950;53.086;21.576;2023-11-22T00:40:53;-3.00;99.90
45207;DHT22;30950;53.086;21.576;2023-11-22T00:43:21;-3.80;99.90
45207;DHT22;30950;53.086;21.576;2023-11-22T00:45:50;-1.80;99.90
45207;DHT22;30950;53.086;21.576;2023-11-22T00:48:18;-3.80;99.90
45207;DHT22;30950;53.086;21.576;2023-11-22T00:50:46;-3.80;99.90
45207;DHT22;30950;53.086;21.576;2023-11-22T00:53:13;-3.80;99.90
45207;DHT22;30950;53.086;21.576;2023-11-22T00:55:43;-3.60;99.90
45207;DHT22;30950;53.086;21.576;2023-11-22T00:58:10;-3.80;99.90
45207;DHT22;30950;53.086;21.576;2023-11-22T01:00:38;-3.90;99.90
45207;DHT22;30950;53.086;21.576;2023-11-22T01:03:05;-3.90;99.90
45207;DHT22;30950;53.086;21.576;2023-11-22T01:05:34;-3.90;99.90
45207;DHT22;30950;53.086;21.576;2023-11-22T01:08:01;-3.90;99.90
45207;DHT22;30950;53.086;21.576;2023-11-22T01:10:29;-3.90;99.90
45207;DHT22;30950;53.086;21.576;2023-11-22T01:12:56;-3.90;99.90
45207;DHT22;30950;53.086;21.576;2023-11-22T01:15:24;-4.00;99.90
45207;DHT22;30950;53.086;21.576;2023-11-22T01:17:51;-3.20;99.90
45207;DHT22;30950;53.086;21.576;2023-11-22T01:20:19;-3.20;99.90
45207;DHT22;30950;53.086;21.576;2023-11-22T01:22:49;-4.10;99.90
45207;DHT22;30950;53.086;21.576;2023-11-22T01:25:19;-4.10;99.90
45207;DHT22;30950;53.086;21.576;2023-11-22T01:27:46;-3.80;99.90
45207;DHT22;30950;53.086;21.576;2023-11-22T01:30:14;-4.10;99.90
45207;DHT22;30950;53.086;21.576;2023-11-22T01:32:41;-4.20;99.90
45207;DHT22;30950;53.086;21.576;2023-11-22T01:35:09;-4.20;99.90
45207;DHT22;30950;53.086;21.576;2023-11-22T01:37:36;-4.20;99.90
45207;DHT22;30950;53.086;21.576;2023-11-22T01:40:04;-2.40;99.90
45207;DHT22;30950;53.086;21.576;2023-11-22T01:42:33;-4.20;99.90
45207;DHT22;30950;53.086;21.576;2023-11-22T01:45:01;-4.20;99.90
45207;DHT22;30950;53.086;21.576;2023-11-22T01:47:29;-4.20;99.90
45207;DHT22;30950;53.086;21.576;2023-11-22T01:49:56;-4.30;99.90
45207;DHT22;30950;53.086;21.576;2023-11-22T01:52:24;-4.30;99.90
45207;DHT22;30950;53.086;21.576;2023-11-22T01:54:52;-4.30;99.90
45207;DHT22;30950;53.086;21.576;2023-11-22T01:57:20;-4.30;99.90
45207;DHT22;30950;53.086;21.576;2023-11-22T01:59:50;-4.30;99.90
45207;DHT22;30950;53.086;21.576;2023-11-22T02:02:18;-4.40;99.90
45207;DHT22;30950;53.086;21.576;2023-11-22T02:04:47;-4.30;99.90
45207;DHT22;30950;53.086;21.576;2023-11-22T02:07:14;-1.90;99.90
45207;DHT22;30950;53.086;21.576;2023-11-22T02:09:43;-4.40;99.90
45207;DHT22;30950;53.086;21.576;2023-11-22T02:12:12;-4.40;99.90
45207;DHT22;30950;53.086;21.576;2023-11-22T02:14:41;-4.50;99.90
45207;DHT22;30950;53.086;21.576;2023-11-22T02:17:08;-4.50;99.90
45207;DHT22;30950;53.086;21.576;2023-11-22T02:19:36;-4.50;99.90
45207;DHT22;30950;53.086;21.576;2023-11-22T02:22:04;-4.40;99.90
45207;DHT22;30950;53.086;21.576;2023-11-22T02:24:31;-4.50;99.90
45207;DHT22;30950;53.086;21.576;2023-11-22T02:27:02;-4.50;99.90
45207;DHT22;30950;53.086;21.576;2023-11-22T02:29:31;-4.50;99.90
45207;DHT22;30950;53.086;21.576;2023-11-22T02:31:58;-4.40;99.90
45207;DHT22;30950;53.086;21.576;2023-11-22T02:34:25;-4.50;99.90
45207;DHT22;30950;53.086;21.576;2023-11-22T02:36:53;-4.50;99.90
45207;DHT22;30950;53.086;21.576;2023-11-22T02:39:41;-4.60;99.90
45207;DHT22;30950;53.086;21.576;2023-11-22T02:42:10;-4.60;99.90
45207;DHT22;30950;53.086;21.576;2023-11-22T02:44:37;-3.70;99.90
45207;DHT22;30950;53.086;21.576;2023-11-22T02:47:05;-3.90;99.90
45207;DHT22;30950;53.086;21.576;2023-11-22T02:49:33;-3.20;99.90
45207;DHT22;30950;53.086;21.576;2023-11-22T02:52:00;-4.70;99.90
45207;DHT22;30950;53.086;21.576;2023-11-22T02:54:28;-4.70;99.90
45207;DHT22;30950;53.086;21.576;2023-11-22T02:56:55;-3.80;99.90
45207;DHT22;30950;53.086;21.576;2023-11-22T02:59:23;-2.60;99.90
45207;DHT22;30950;53.086;21.576;2023-11-22T03:01:51;-4.40;99.90
45207;DHT22;30950;53.086;21.576;2023-11-22T03:04:18;-4.30;99.90
45207;DHT22;30950;53.086;21.576;2023-11-22T03:06:46;-4.80;99.90
45207;DHT22;30950;53.086;21.576;2023-11-22T03:09:13;-4.70;99.90
45207;DHT22;30950;53.086;21.576;2023-11-22T03:11:41;-4.80;99.90
45207;DHT22;30950;53.086;21.576;2023-11-22T03:14:09;-4.80;99.90
45207;DHT22;30950;53.086;21.576;2023-11-22T03:16:41;-3.50;99.90
45207;DHT22;30950;53.086;21.576;2023-11-22T03:19:10;-3.40;99.90
45207;DHT22;30950;53.086;21.576;2023-11-22T03:21:37;-4.80;99.90
45207;DHT22;30950;53.086;21.576;2023-11-22T03:24:05;-4.90;99.90
45207;DHT22;30950;53.086;21.576;2023-11-22T03:26:33;-4.80;99.90
45207;DHT22;30950;53.086;21.576;2023-11-22T03:29:01;-4.90;99.90
45207;DHT22;30950;53.086;21.576;2023-11-22T03:31:29;-4.70;99.90
45207;DHT22;30950;53.086;21.576;2023-11-22T03:33:57;-3.60;99.90
45207;DHT22;30950;53.086;21.576;2023-11-22T03:36:25;-3.90;99.90
45207;DHT22;30950;53.086;21.576;2023-11-22T03:38:53;-4.00;99.90
45207;DHT22;30950;53.086;21.576;2023-11-22T03:41:20;-4.90;99.90
45207;DHT22;30950;53.086;21.576;2023-11-22T03:43:48;-4.80;99.90
45207;DHT22;30950;53.086;21.576;2023-11-22T03:46:15;-4.90;99.90
45207;DHT22;30950;53.086;21.576;2023-11-22T03:48:43;-4.60;99.90
45207;DHT22;30950;53.086;21.576;2023-11-22T03:51:10;-3.40;99.90
45207;DHT22;30950;53.086;21.576;2023-11-22T03:53:38;-4.90;99.90
45207;DHT22;30950;53.086;21.576;2023-11-22T03:56:06;-2.80;99.90
45207;DHT22;30950;53.086;21.576;2023-11-22T03:58:34;-5.00;99.90
45207;DHT22;30950;53.086;21.576;2023-11-22T04:01:01;-5.00;99.90
45207;DHT22;30950;53.086;21.576;2023-11-22T04:03:30;-4.90;99.90
45207;DHT22;30950;53.086;21.576;2023-11-22T04:05:58;-5.00;99.90
45207;DHT22;30950;53.086;21.576;2023-11-22T04:08:25;-5.00;99.90
45207;DHT22;30950;53.086;21.576;2023-11-22T04:10:52;-5.00;99.90
45207;DHT22;30950;53.086;21.576;2023-11-22T04:13:20;-5.00;99.90
45207;DHT22;30950;53.086;21.576;2023-11-22T04:15:48;-3.70;99.90
45207;DHT22;30950;53.086;21.576;2023-11-22T04:18:16;-5.00;99.90
45207;DHT22;30950;53.086;21.576;2023-11-22T04:20:44;-5.00;99.90
45207;DHT22;30950;53.086;21.576;2023-11-22T04:23:12;-5.00;99.90
45207;DHT22;30950;53.086;21.576;2023-11-22T04:25:41;-5.00;99.90
45207;DHT22;30950;53.086;21.576;2023-11-22T04:28:09;-5.10;99.90
45207;DHT22;30950;53.086;21.576;2023-11-22T04:30:37;-5.10;99.90
45207;DHT22;30950;53.086;21.576;2023-11-22T04:33:04;-5.10;99.90
45207;DHT22;30950;53.086;21.576;2023-11-22T04:35:33;-5.20;99.90
45207;DHT22;30950;53.086;21.576;2023-11-22T04:38:04;-5.10;99.90
45207;DHT22;30950;53.086;21.576;2023-11-22T04:40:32;-4.60;99.90
45207;DHT22;30950;53.086;21.576;2023-11-22T04:42:59;-5.20;99.90
45207;DHT22;30950;53.086;21.576;2023-11-22T04:45:27;-5.20;99.90
45207;DHT22;30950;53.086;21.576;2023-11-22T04:47:54;-5.20;99.90
45207;DHT22;30950;53.086;21.576;2023-11-22T04:50:24;-4.00;99.90
45207;DHT22;30950;53.086;21.576;2023-11-22T04:52:51;-5.30;99.90
45207;DHT22;30950;53.086;21.576;2023-11-22T04:55:18;-5.20;99.90
45207;DHT22;30950;53.086;21.576;2023-11-22T04:57:46;-2.60;99.90
45207;DHT22;30950;53.086;21.576;2023-11-22T05:00:14;-3.50;99.90
45207;DHT22;30950;53.086;21.576;2023-11-22T05:02:42;-5.30;99.90
45207;DHT22;30950;53.086;21.576;2023-11-22T05:05:10;-2.90;99.90
45207;DHT22;30950;53.086;21.576;2023-11-22T05:07:40;-5.30;99.90
45207;DHT22;30950;53.086;21.576;2023-11-22T05:10:08;-5.30;99.90
45207;DHT22;30950;53.086;21.576;2023-11-22T05:12:36;-5.30;99.90
45207;DHT22;30950;53.086;21.576;2023-11-22T05:15:04;-5.30;99.90
45207;DHT22;30950;53.086;21.576;2023-11-22T05:17:32;-5.30;99.90
45207;DHT22;30950;53.086;21.576;2023-11-22T05:19:59;-5.30;99.90
45207;DHT22;30950;53.086;21.576;2023-11-22T05:22:27;-5.40;99.90
45207;DHT22;30950;53.086;21.576;2023-11-22T05:24:54;-5.40;99.90
45207;DHT22;30950;53.086;21.576;2023-11-22T05:27:23;-5.30;99.90
45207;DHT22;30950;53.086;21.576;2023-11-22T05:29:50;-5.40;99.90
45207;DHT22;30950;53.086;21.576;2023-11-22T05:32:21;-5.40;99.90
45207;DHT22;30950;53.086;21.576;2023-11-22T05:34:49;-5.30;99.90
45207;DHT22;30950;53.086;21.576;2023-11-22T05:37:16;-5.40;99.90
45207;DHT22;30950;53.086;21.576;2023-11-22T05:39:44;-5.30;99.90
45207;DHT22;30950;53.086;21.576;2023-11-22T05:42:12;-5.30;99.90
45207;DHT22;30950;53.086;21.576;2023-11-22T05:44:39;-5.30;99.90
45207;DHT22;30950;53.086;21.576;2023-11-22T05:47:07;-5.40;99.90
45207;DHT22;30950;53.086;21.576;2023-11-22T05:49:35;-5.40;99.90
45207;DHT22;30950;53.086;21.576;2023-11-22T05:52:03;-5.40;99.90
45207;DHT22;30950;53.086;21.576;2023-11-22T05:54:31;-5.30;99.90
45207;DHT22;30950;53.086;21.576;2023-11-22T05:56:59;-4.70;99.90
45207;DHT22;30950;53.086;21.576;2023-11-22T05:59:26;-5.30;99.90
45207;DHT22;30950;53.086;21.576;2023-11-22T06:01:54;-5.30;99.90
45207;DHT22;30950;53.086;21.576;2023-11-22T06:04:21;-5.30;99.90
45207;DHT22;30950;53.086;21.576;2023-11-22T06:06:49;-5.30;99.90
45207;DHT22;30950;53.086;21.576;2023-11-22T06:09:16;-5.30;99.90
45207;DHT22;30950;53.086;21.576;2023-11-22T06:11:43;-5.30;99.90
45207;DHT22;30950;53.086;21.576;2023-11-22T06:14:11;-5.30;99.90
45207;DHT22;30950;53.086;21.576;2023-11-22T06:16:39;-5.30;99.90
45207;DHT22;30950;53.086;21.576;2023-11-22T06:19:06;-4.20;99.90
45207;DHT22;30950;53.086;21.576;2023-11-22T06:21:34;-5.40;99.90
45207;DHT22;30950;53.086;21.576;2023-11-22T06:24:03;-5.40;99.90
45207;DHT22;30950;53.086;21.576;2023-11-22T06:26:33;-5.40;99.90
45207;DHT22;30950;53.086;21.576;2023-11-22T06:29:00;-5.40;99.90
45207;DHT22;30950;53.086;21.576;2023-11-22T06:31:28;-5.30;99.90
45207;DHT22;30950;53.086;21.576;2023-11-22T06:33:55;-5.30;99.90
45207;DHT22;30950;53.086;21.576;2023-11-22T06:36:23;-5.30;99.90
45207;DHT22;30950;53.086;21.576;2023-11-22T06:38:50;-5.20;99.90
45207;DHT22;30950;53.086;21.576;2023-11-22T06:41:18;-5.20;99.90
45207;DHT22;30950;53.086;21.576;2023-11-22T06:43:45;-5.10;99.90
45207;DHT22;30950;53.086;21.576;2023-11-22T06:46:13;-2.40;99.90
45207;DHT22;30950;53.086;21.576;2023-11-22T06:48:43;-5.10;99.90
45207;DHT22;30950;53.086;21.576;2023-11-22T06:51:16;-5.00;99.90
45207;DHT22;30950;53.086;21.576;2023-11-22T06:53:45;-5.00;99.90
45207;DHT22;30950;53.086;21.576;2023-11-22T06:56:13;-4.90;99.90
45207;DHT22;30950;53.086;21.576;2023-11-22T06:58:41;-4.90;99.90
45207;DHT22;30950;53.086;21.576;2023-11-22T07:01:09;-4.80;99.90
45207;DHT22;30950;53.086;21.576;2023-11-22T07:03:39;-4.80;99.90
45207;DHT22;30950;53.086;21.576;2023-11-22T07:06:08;-4.70;99.90
45207;DHT22;30950;53.086;21.576;2023-11-22T07:08:35;-4.60;99.90
45207;DHT22;30950;53.086;21.576;2023-11-22T07:11:03;-4.50;99.90
45207;DHT22;30950;53.086;21.576;2023-11-22T07:13:30;-4.40;99.90
45207;DHT22;30950;53.086;21.576;2023-11-22T07:15:58;-4.40;99.90
45207;DHT22;30950;53.086;21.576;2023-11-22T07:18:27;-4.30;99.90
45207;DHT22;30950;53.086;21.576;2023-11-22T07:20:55;-4.30;99.90
45207;DHT22;30950;53.086;21.576;2023-11-22T07:23:22;-4.20;99.90
45207;DHT22;30950;53.086;21.576;2023-11-22T07:25:55;-4.20;99.90
45207;DHT22;30950;53.086;21.576;2023-11-22T07:28:22;-4.10;99.90
45207;DHT22;30950;53.086;21.576;2023-11-22T07:30:50;-4.00;99.90
45207;DHT22;30950;53.086;21.576;2023-11-22T07:33:19;-4.00;99.90
45207;DHT22;30950;53.086;21.576;2023-11-22T07:35:48;-2.40;99.90
45207;DHT22;30950;53.086;21.576;2023-11-22T07:38:15;-3.90;99.90
45207;DHT22;30950;53.086;21.576;2023-11-22T07:40:44;-3.90;99.90
45207;DHT22;30950;53.086;21.576;2023-11-22T07:43:12;-3.80;99.90
45207;DHT22;30950;53.086;21.576;2023-11-22T07:45:40;-5.10;99.90
45207;DHT22;30950;53.086;21.576;2023-11-22T07:48:07;-3.70;99.90
45207;DHT22;30950;53.086;21.576;2023-11-22T07:50:38;-3.20;99.90
45207;DHT22;30950;53.086;21.576;2023-11-22T07:53:06;-3.60;99.90
45207;DHT22;30950;53.086;21.576;2023-11-22T07:55:36;-3.60;99.90
45207;DHT22;30950;53.086;21.576;2023-11-22T07:58:05;-3.60;99.90
45207;DHT22;30950;53.086;21.576;2023-11-22T08:00:36;-2.20;99.90
45207;DHT22;30950;53.086;21.576;2023-11-22T08:03:04;-3.60;99.90
45207;DHT22;30950;53.086;21.576;2023-11-22T08:05:34;-3.60;99.90
45207;DHT22;30950;53.086;21.576;2023-11-22T08:08:04;-3.50;99.90
45207;DHT22;30950;53.086;21.576;2023-11-22T08:10:36;-3.50;99.90
45207;DHT22;30950;53.086;21.576;2023-11-22T08:13:03;-3.40;99.90
45207;DHT22;30950;53.086;21.576;2023-11-22T08:15:31;-3.30;99.90
45207;DHT22;30950;53.086;21.576;2023-11-22T08:17:59;-2.80;99.90
45207;DHT22;30950;53.086;21.576;2023-11-22T08:20:28;-3.20;99.90
45207;DHT22;30950;53.086;21.576;2023-11-22T08:22:55;-3.10;99.90
45207;DHT22;30950;53.086;21.576;2023-11-22T08:25:22;-3.10;99.90
45207;DHT22;30950;53.086;21.576;2023-11-22T08:27:50;-3.00;99.90
45207;DHT22;30950;53.086;21.576;2023-11-22T08:30:17;-3.00;99.90
45207;DHT22;30950;53.086;21.576;2023-11-22T08:32:46;-2.90;99.90
45207;DHT22;30950;53.086;21.576;2023-11-22T08:35:22;-2.90;99.90
45207;DHT22;30950;53.086;21.576;2023-11-22T08:37:50;-2.40;99.90
45207;DHT22;30950;53.086;21.576;2023-11-22T08:40:18;-2.80;99.90
45207;DHT22;30950;53.086;21.576;2023-11-22T08:42:49;-2.80;99.90
45207;DHT22;30950;53.086;21.576;2023-11-22T08:45:17;-2.80;99.90
45207;DHT22;30950;53.086;21.576;2023-11-22T08:47:44;-2.80;99.90
45207;DHT22;30950;53.086;21.576;2023-11-22T08:50:14;-2.90;99.90
45207;DHT22;30950;53.086;21.576;2023-11-22T08:52:43;-2.30;99.90
45207;DHT22;30950;53.086;21.576;2023-11-22T08:55:12;-3.00;99.90
45207;DHT22;30950;53.086;21.576;2023-11-22T08:57:42;-3.00;99.90
45207;DHT22;30950;53.086;21.576;2023-11-22T09:00:10;-3.00;99.90
45207;DHT22;30950;53.086;21.576;2023-11-22T09:02:38;-3.00;99.90
45207;DHT22;30950;53.086;21.576;2023-11-22T09:05:07;-3.00;99.90
45207;DHT22;30950;53.086;21.576;2023-11-22T09:07:40;-3.00;99.90
45207;DHT22;30950;53.086;21.576;2023-11-22T09:10:07;-2.90;99.90
45207;DHT22;30950;53.086;21.576;2023-11-22T09:12:42;-2.90;99.90
45207;DHT22;30950;53.086;21.576;2023-11-22T09:15:14;-2.90;99.90
45207;DHT22;30950;53.086;21.576;2023-11-22T09:17:44;-2.80;99.90
45207;DHT22;30950;53.086;21.576;2023-11-22T09:20:15;-2.80;99.90
45207;DHT22;30950;53.086;21.576;2023-11-22T09:22:48;-2.70;99.90
45207;DHT22;30950;53.086;21.576;2023-11-22T09:25:17;-2.70;99.90
45207;DHT22;30950;53.086;21.576;2023-11-22T09:27:50;-2.60;99.90
45207;DHT22;30950;53.086;21.576;2023-11-22T09:30:20;-2.60;99.90
45207;DHT22;30950;53.086;21.576;2023-11-22T09:33:10;-2.50;99.90
45207;DHT22;30950;53.086;21.576;2023-11-22T09:35:38;-2.40;99.90
45207;DHT22;30950;53.086;21.576;2023-11-22T09:38:08;-2.40;99.90
45207;DHT22;30950;53.086;21.576;2023-11-22T09:40:48;-2.30;99.90
45207;DHT22;30950;53.086;21.576;2023-11-22T09:43:17;-2.20;99.90
45207;DHT22;30950;53.086;21.576;2023-11-22T09:45:50;-2.20;99.90
45207;DHT22;30950;53.086;21.576;2023-11-22T09:48:24;-2.10;99.90
45207;DHT22;30950;53.086;21.576;2023-11-22T09:53:52;-2.00;99.90
45207;DHT22;30950;53.086;21.576;2023-11-22T09:56:21;-1.90;99.90
45207;DHT22;30950;53.086;21.576;2023-11-22T09:58:55;-1.80;99.90
45207;DHT22;30950;53.086;21.576;2023-11-22T10:01:24;-1.70;99.90
45207;DHT22;30950;53.086;21.576;2023-11-22T10:03:51;-1.70;99.90
45207;DHT22;30950;53.086;21.576;2023-11-22T10:06:19;-1.60;99.90
45207;DHT22;30950;53.086;21.576;2023-11-22T10:08:47;-1.50;99.90
45207;DHT22;30950;53.086;21.576;2023-11-22T10:11:18;-1.20;99.90
45207;DHT22;30950;53.086;21.576;2023-11-22T10:13:51;-0.70;99.90
45207;DHT22;30950;53.086;21.576;2023-11-22T10:16:19;-0.20;99.90
45207;DHT22;30950;53.086;21.576;2023-11-22T10:18:49;0.30;99.90
45207;DHT22;30950;53.086;21.576;2023-11-22T10:21:21;0.80;99.90
45207;DHT22;30950;53.086;21.576;2023-11-22T10:23:49;1.30;99.90
45207;DHT22;30950;53.086;21.576;2023-11-22T10:26:19;1.80;99.90
45207;DHT22;30950;53.086;21.576;2023-11-22T10:28:50;2.20;99.90
45207;DHT22;30950;53.086;21.576;2023-11-22T10:31:19;2.80;98.70
45207;DHT22;30950;53.086;21.576;2023-11-22T10:33:46;2.60;99.20
45207;DHT22;30950;53.086;21.576;2023-11-22T10:36:14;2.70;98.70
45207;DHT22;30950;53.086;21.576;2023-11-22T10:38:46;2.70;97.30
45207;DHT22;30950;53.086;21.576;2023-11-22T10:41:14;2.60;96.70
45207;DHT22;30950;53.086;21.576;2023-11-22T10:43:41;2.20;94.90
45207;DHT22;30950;53.086;21.576;2023-11-22T10:46:09;1.90;95.50
45207;DHT22;30950;53.086;21.576;2023-11-22T10:48:37;1.60;95.40
45207;DHT22;30950;53.086;21.576;2023-11-22T10:51:05;1.30;96.00
45207;DHT22;30950;53.086;21.576;2023-11-22T10:53:34;1.10;96.20
45207;DHT22;30950;53.086;21.576;2023-11-22T10:56:06;0.90;96.50
45207;DHT22;30950;53.086;21.576;2023-11-22T10:58:53;0.70;96.60
45207;DHT22;30950;53.086;21.576;2023-11-22T11:01:26;0.50;97.10
45207;DHT22;30950;53.086;21.576;2023-11-22T11:04:01;0.40;98.00
45207;DHT22;30950;53.086;21.576;2023-11-22T11:06:35;0.40;98.30
45207;DHT22;30950;53.086;21.576;2023-11-22T11:09:06;2.30;98.50
45207;DHT22;30950;53.086;21.576;2023-11-22T11:11:38;0.20;97.20
45207;DHT22;30950;53.086;21.576;2023-11-22T11:14:09;0.10;97.40
45207;DHT22;30950;53.086;21.576;2023-11-22T11:16:39;0.10;98.00
45207;DHT22;30950;53.086;21.576;2023-11-22T11:19:16;0.20;97.90
45207;DHT22;30950;53.086;21.576;2023-11-22T11:21:47;0.10;98.20
45207;DHT22;30950;53.086;21.576;2023-11-22T11:24:15;0.20;98.60
45207;DHT22;30950;53.086;21.576;2023-11-22T11:26:48;0.40;99.90
45207;DHT22;30950;53.086;21.576;2023-11-22T11:29:35;0.70;99.90
45207;DHT22;30950;53.086;21.576;2023-11-22T11:32:04;1.00;99.60
45207;DHT22;30950;53.086;21.576;2023-11-22T11:34:46;1.10;98.00
45207;DHT22;30950;53.086;21.576;2023-11-22T11:37:14;1.10;95.20
45207;DHT22;30950;53.086;21.576;2023-11-22T11:39:42;1.00;96.00
45207;DHT22;30950;53.086;21.576;2023-11-22T11:42:12;1.40;95.50
45207;DHT22;30950;53.086;21.576;2023-11-22T11:45:04;0.70;95.50
45207;DHT22;30950;53.086;21.576;2023-11-22T11:47:36;0.60;95.90
45207;DHT22;30950;53.086;21.576;2023-11-22T11:50:03;0.50;96.10
45207;DHT22;30950;53.086;21.576;2023-11-22T11:52:32;0.40;96.70
45207;DHT22;30950;53.086;21.576;2023-11-22T11:54:59;0.30;97.00
45207;DHT22;30950;53.086;21.576;2023-11-22T11:57:31;0.20;97.20
45207;DHT22;30950;53.086;21.576;2023-11-22T11:59:59;0.20;98.00
45207;DHT22;30950;53.086;21.576;2023-11-22T12:02:37;0.20;98.50
45207;DHT22;30950;53.086;21.576;2023-11-22T12:05:05;2.70;99.20
45207;DHT22;30950;53.086;21.576;2023-11-22T12:07:37;0.20;98.90
45207;DHT22;30950;53.086;21.576;2023-11-22T12:10:05;0.10;99.10
45207;DHT22;30950;53.086;21.576;2023-11-22T12:12:36;0.10;99.50
45207;DHT22;30950;53.086;21.576;2023-11-22T12:15:03;0.10;99.20
45207;DHT22;30950;53.086;21.576;2023-11-22T12:17:31;0.00;99.50
45207;DHT22;30950;53.086;21.576;2023-11-22T12:20:13;0.00;99.70
45207;DHT22;30950;53.086;21.576;2023-11-22T12:22:43;-0.20;99.50
45207;DHT22;30950;53.086;21.576;2023-11-22T12:25:11;-0.20;99.90
45207;DHT22;30950;53.086;21.576;2023-11-22T12:27:42;0.10;99.90
45207;DHT22;30950;53.086;21.576;2023-11-22T12:30:28;-0.30;99.90
45207;DHT22;30950;53.086;21.576;2023-11-22T12:32:57;-0.30;99.90
45207;DHT22;30950;53.086;21.576;2023-11-22T12:35:24;-0.30;99.90
45207;DHT22;30950;53.086;21.576;2023-11-22T12:37:52;-0.30;99.90
45207;DHT22;30950;53.086;21.576;2023-11-22T12:40:21;-0.20;99.90
45207;DHT22;30950;53.086;21.576;2023-11-22T12:42:52;-0.10;99.90
45207;DHT22;30950;53.086;21.576;2023-11-22T12:45:25;-0.10;99.90
45207;DHT22;30950;53.086;21.576;2023-11-22T12:47:53;0.00;99.90
45207;DHT22;30950;53.086;21.576;2023-11-22T12:53:10;-0.10;99.90
45207;DHT22;30950;53.086;21.576;2023-11-22T12:55:44;-0.10;99.90
45207;DHT22;30950;53.086;21.576;2023-11-22T12:58:14;-0.10;99.90
45207;DHT22;30950;53.086;21.576;2023-11-22T13:00:41;-0.10;99.90
45207;DHT22;30950;53.086;21.576;2023-11-22T13:03:09;-0.10;99.90
45207;DHT22;30950;53.086;21.576;2023-11-22T13:05:44;-0.10;99.90
45207;DHT22;30950;53.086;21.576;2023-11-22T13:08:13;-0.10;99.90
45207;DHT22;30950;53.086;21.576;2023-11-22T13:10:45;-0.10;99.90
45207;DHT22;30950;53.086;21.576;2023-11-22T13:13:14;-0.20;99.90
45207;DHT22;30950;53.086;21.576;2023-11-22T13:15:41;-0.10;99.90
45207;DHT22;30950;53.086;21.576;2023-11-22T13:18:09;-0.10;99.90
45207;DHT22;30950;53.086;21.576;2023-11-22T13:20:36;-0.20;99.90
45207;DHT22;30950;53.086;21.576;2023-11-22T13:23:06;-0.20;99.90
45207;DHT22;30950;53.086;21.576;2023-11-22T13:25:34;-0.30;99.90
45207;DHT22;30950;53.086;21.576;2023-11-22T13:28:02;-0.30;99.90
45207;DHT22;30950;53.086;21.576;2023-11-22T13:30:32;-0.30;99.90
45207;DHT22;30950;53.086;21.576;2023-11-22T13:32:59;-0.30;99.90
45207;DHT22;30950;53.086;21.576;2023-11-22T13:35:28;1.20;99.90
45207;DHT22;30950;53.086;21.576;2023-11-22T13:37:59;-0.40;99.90
45207;DHT22;30950;53.086;21.576;2023-11-22T13:40:28;-0.40;99.90
45207;DHT22;30950;53.086;21.576;2023-11-22T13:42:59;-0.40;99.90
45207;DHT22;30950;53.086;21.576;2023-11-22T13:45:26;-0.40;99.90
45207;DHT22;30950;53.086;21.576;2023-11-22T13:47:54;-0.40;99.90
45207;DHT22;30950;53.086;21.576;2023-11-22T13:50:28;-0.40;99.90
45207;DHT22;30950;53.086;21.576;2023-11-22T13:52:56;-0.40;99.90
45207;DHT22;30950;53.086;21.576;2023-11-22T13:55:24;-0.50;99.90
45207;DHT22;30950;53.086;21.576;2023-11-22T13:57:53;-0.50;99.90
45207;DHT22;30950;53.086;21.576;2023-11-22T14:00:22;-0.60;99.90
45207;DHT22;30950;53.086;21.576;2023-11-22T14:02:50;-0.60;99.90
45207;DHT22;30950;53.086;21.576;2023-11-22T14:05:27;-0.70;99.90
45207;DHT22;30950;53.086;21.576;2023-11-22T14:07:55;-0.70;99.90
45207;DHT22;30950;53.086;21.576;2023-11-22T14:10:22;-0.70;99.90
45207;DHT22;30950;53.086;21.576;2023-11-22T14:12:50;-0.80;99.90
45207;DHT22;30950;53.086;21.576;2023-11-22T14:15:18;0.70;99.90
45207;DHT22;30950;53.086;21.576;2023-11-22T14:17:47;-0.80;99.90
45207;DHT22;30950;53.086;21.576;2023-11-22T14:20:18;0.30;99.90
45207;DHT22;30950;53.086;21.576;2023-11-22T14:22:45;-0.90;99.90
45207;DHT22;30950;53.086;21.576;2023-11-22T14:25:13;-0.60;99.90
45207;DHT22;30950;53.086;21.576;2023-11-22T14:27:45;-0.90;99.90
45207;DHT22;30950;53.086;21.576;2023-11-22T14:30:13;-0.90;99.90
45207;DHT22;30950;53.086;21.576;2023-11-22T14:32:43;-0.90;99.90
45207;DHT22;30950;53.086;21.576;2023-11-22T14:35:11;-1.00;99.90
45207;DHT22;30950;53.086;21.576;2023-11-22T14:37:40;-1.00;99.90
45207;DHT22;30950;53.086;21.576;2023-11-22T14:40:08;-1.00;99.90
45207;DHT22;30950;53.086;21.576;2023-11-22T14:42:41;-1.00;99.90
45207;DHT22;30950;53.086;21.576;2023-11-22T14:45:09;-1.00;99.90
45207;DHT22;30950;53.086;21.576;2023-11-22T14:47:39;-1.10;99.90
45207;DHT22;30950;53.086;21.576;2023-11-22T14:50:07;-1.20;99.90
45207;DHT22;30950;53.086;21.576;2023-11-22T14:52:38;-1.20;99.90
45207;DHT22;30950;53.086;21.576;2023-11-22T14:55:06;-0.30;99.90
45207;DHT22;30950;53.086;21.576;2023-11-22T14:57:36;-1.30;99.90
45207;DHT22;30950;53.086;21.576;2023-11-22T15:00:05;-1.30;99.90
45207;DHT22;30950;53.086;21.576;2023-11-22T15:02:37;-1.30;99.90
45207;DHT22;30950;53.086;21.576;2023-11-22T15:05:04;-1.40;99.90
45207;DHT22;30950;53.086;21.576;2023-11-22T15:07:39;-1.40;99.90
45207;DHT22;30950;53.086;21.576;2023-11-22T15:10:10;-1.40;99.90
45207;DHT22;30950;53.086;21.576;2023-11-22T15:12:38;-1.40;99.90
45207;DHT22;30950;53.086;21.576;2023-11-22T15:15:09;-1.50;99.90
45207;DHT22;30950;53.086;21.576;2023-11-22T15:17:38;-1.40;99.90
45207;DHT22;30950;53.086;21.576;2023-11-22T15:20:07;-1.40;99.90
45207;DHT22;30950;53.086;21.576;2023-11-22T15:22:39;-1.40;99.90
45207;DHT22;30950;53.086;21.576;2023-11-22T15:25:09;-1.50;99.90
45207;DHT22;30950;53.086;21.576;2023-11-22T15:27:41;-1.50;99.90
45207;DHT22;30950;53.086;21.576;2023-11-22T15:30:08;-1.50;99.90
45207;DHT22;30950;53.086;21.576;2023-11-22T15:32:36;-1.50;99.90
45207;DHT22;30950;53.086;21.576;2023-11-22T15:35:04;-1.20;99.90